sensor_id;sensor_type;location;lat;lon;timestamp;pressure;altitude;pressure_sealevel;temperature;humidity
71907;BME280;59781;52.090;5.030;2023-12-22T00:01:15;100263.28;;;7.54;100.00
71907;BME280;59781;52.090;5.030;2023-12-22T00:03:42;100266.47;;;7.49;100.00
71907;BME280;59781;52.090;5.030;2023-12-22T00:06:08;100276.00;;;7.60;100.00
71907;BME280;59781;52.090;5.030;2023-12-22T00:08:34;100271.47;;;7.76;100.00
71907;BME280;59781;52.090;5.030;2023-12-22T00:11:00;100263.44;;;7.85;100.00
71907;BME280;59781;52.090;5.030;2023-12-22T00:13:25;100264.47;;;7.84;100.00
71907;BME280;59781;52.090;5.030;2023-12-22T00:15:51;100265.78;;;7.96;100.00
71907;BME280;59781;52.090;5.030;2023-12-22T00:18:17;100280.56;;;8.00;100.00
71907;BME280;59781;52.090;5.030;2023-12-22T00:20:43;100276.34;;;8.05;100.00
71907;BME280;59781;52.090;5.030;2023-12-22T00:23:08;100267.63;;;7.95;100.00
71907;BME280;59781;52.090;5.030;2023-12-22T00:25:34;100276.38;;;7.97;100.00
71907;BME280;59781;52.090;5.030;2023-12-22T00:28:00;100266.63;;;8.13;100.00
71907;BME280;59781;52.090;5.030;2023-12-22T00:30:25;100249.88;;;7.94;100.00
71907;BME280;59781;52.090;5.030;2023-12-22T00:32:51;100259.09;;;8.00;100.00
71907;BME280;59781;52.090;5.030;2023-12-22T00:35:17;100272.00;;;7.88;100.00
71907;BME280;59781;52.090;5.030;2023-12-22T00:37:42;100280.03;;;8.04;100.00
71907;BME280;59781;52.090;5.030;2023-12-22T00:40:08;100306.88;;;7.96;100.00
71907;BME280;59781;52.090;5.030;2023-12-22T00:42:35;100301.09;;;6.92;100.00
71907;BME280;59781;52.090;5.030;2023-12-22T00:45:00;100320.91;;;6.21;100.00
71907;BME280;59781;52.090;5.030;2023-12-22T00:47:27;100302.97;;;6.14;100.00
71907;BME280;59781;52.090;5.030;2023-12-22T00:49:53;100314.56;;;6.22;100.00
71907;BME280;59781;52.090;5.030;2023-12-22T00:52:19;100320.00;;;6.30;100.00
71907;BME280;59781;52.090;5.030;2023-12-22T00:54:45;100315.66;;;6.64;100.00
71907;BME280;59781;52.090;5.030;2023-12-22T00:57:10;100309.59;;;6.53;100.00
71907;BME280;59781;52.090;5.030;2023-12-22T00:59:37;100314.69;;;6.65;100.00
71907;BME280;59781;52.090;5.030;2023-12-22T01:02:03;100321.69;;;6.66;100.00
71907;BME280;59781;52.090;5.030;2023-12-22T01:04:29;100338.44;;;6.68;100.00
71907;BME280;59781;52.090;5.030;2023-12-22T01:06:54;100355.09;;;6.79;100.00
71907;BME280;59781;52.090;5.030;2023-12-22T01:09:20;100349.19;;;6.76;100.00
71907;BME280;59781;52.090;5.030;2023-12-22T01:11:46;100351.56;;;6.79;100.00
71907;BME280;59781;52.090;5.030;2023-12-22T01:14:12;100344.25;;;6.89;100.00
71907;BME280;59781;52.090;5.030;2023-12-22T01:16:39;100336.09;;;6.99;100.00
71907;BME280;59781;52.090;5.030;2023-12-22T01:19:05;100337.53;;;7.19;100.00
71907;BME280;59781;52.090;5.030;2023-12-22T01:21:31;100345.00;;;7.07;100.00
71907;BME280;59781;52.090;5.030;2023-12-22T01:23:57;100344.66;;;7.02;100.00
71907;BME280;59781;52.090;5.030;2023-12-22T01:26:24;100337.38;;;7.21;100.00
71907;BME280;59781;52.090;5.030;2023-12-22T01:28:50;100328.72;;;7.43;100.00
71907;BME280;59781;52.090;5.030;2023-12-22T01:31:16;100334.06;;;7.35;100.00
71907;BME280;59781;52.090;5.030;2023-12-22T01:33:42;100349.41;;;7.25;100.00
71907;BME280;59781;52.090;5.030;2023-12-22T01:36:08;100344.72;;;7.27;100.00
71907;BME280;59781;52.090;5.030;2023-12-22T01:38:33;100343.78;;;7.44;100.00
71907;BME280;59781;52.090;5.030;2023-12-22T01:40:59;100347.78;;;7.32;100.00
71907;BME280;59781;52.090;5.030;2023-12-22T01:43:25;100340.22;;;7.27;100.00
71907;BME280;59781;52.090;5.030;2023-12-22T01:45:55;100348.91;;;7.21;100.00
71907;BME280;59781;52.090;5.030;2023-12-22T01:48:24;100347.78;;;7.32;100.00
71907;BME280;59781;52.090;5.030;2023-12-22T01:50:52;100345.63;;;7.43;100.00
71907;BME280;59781;52.090;5.030;2023-12-22T01:53:20;100339.13;;;7.04;100.00
71907;BME280;59781;52.090;5.030;2023-12-22T01:55:48;100326.56;;;7.04;100.00
71907;BME280;59781;52.090;5.030;2023-12-22T01:58:17;100325.06;;;7.02;100.00
71907;BME280;59781;52.090;5.030;2023-12-22T02:00:45;100326.28;;;7.15;100.00
71907;BME280;59781;52.090;5.030;2023-12-22T02:03:12;100327.72;;;7.44;100.00
71907;BME280;59781;52.090;5.030;2023-12-22T02:05:41;100317.13;;;7.26;100.00
71907;BME280;59781;52.090;5.030;2023-12-22T02:08:07;100315.47;;;7.33;100.00
71907;BME280;59781;52.090;5.030;2023-12-22T02:10:33;100309.91;;;7.27;100.00
71907;BME280;59781;52.090;5.030;2023-12-22T02:12:59;100297.53;;;7.26;100.00
71907;BME280;59781;52.090;5.030;2023-12-22T02:15:25;100308.13;;;7.43;100.00
71907;BME280;59781;52.090;5.030;2023-12-22T02:18:01;100303.13;;;7.65;100.00
71907;BME280;59781;52.090;5.030;2023-12-22T02:20:31;100291.44;;;7.58;100.00
71907;BME280;59781;52.090;5.030;2023-12-22T02:22:58;100296.47;;;7.69;100.00
71907;BME280;59781;52.090;5.030;2023-12-22T02:25:23;100273.31;;;7.76;100.00
71907;BME280;59781;52.090;5.030;2023-12-22T02:27:57;100274.69;;;7.72;100.00
71907;BME280;59781;52.090;5.030;2023-12-22T02:33:29;100273.66;;;7.73;100.00
71907;BME280;59781;52.090;5.030;2023-12-22T02:36:03;100277.03;;;7.83;100.00
71907;BME280;59781;52.090;5.030;2023-12-22T02:38:34;100273.66;;;7.65;100.00
71907;BME280;59781;52.090;5.030;2023-12-22T02:41:02;100291.94;;;7.69;100.00
71907;BME280;59781;52.090;5.030;2023-12-22T02:43:28;100283.91;;;7.78;100.00
71907;BME280;59781;52.090;5.030;2023-12-22T02:45:54;100276.38;;;7.81;100.00
71907;BME280;59781;52.090;5.030;2023-12-22T02:48:20;100277.03;;;7.83;100.00
71907;BME280;59781;52.090;5.030;2023-12-22T02:50:45;100285.38;;;7.64;100.00
71907;BME280;59781;52.090;5.030;2023-12-22T02:53:11;100292.25;;;7.66;100.00
71907;BME280;59781;52.090;5.030;2023-12-22T02:55:37;100286.91;;;7.58;100.00
71907;BME280;59781;52.090;5.030;2023-12-22T02:58:02;100289.28;;;7.78;100.00
71907;BME280;59781;52.090;5.030;2023-12-22T03:00:28;100290.41;;;7.75;100.00
71907;BME280;59781;52.090;5.030;2023-12-22T03:02:54;100301.47;;;7.72;100.00
71907;BME280;59781;52.090;5.030;2023-12-22T03:05:19;100296.47;;;7.93;100.00
71907;BME280;59781;52.090;5.030;2023-12-22T03:07:45;100286.09;;;7.98;100.00
71907;BME280;59781;52.090;5.030;2023-12-22T03:10:11;100291.44;;;8.15;100.00
71907;BME280;59781;52.090;5.030;2023-12-22T03:12:36;100293.78;;;8.10;100.00
71907;BME280;59781;52.090;5.030;2023-12-22T03:15:03;100307.69;;;8.05;100.00
71907;BME280;59781;52.090;5.030;2023-12-22T03:17:29;100288.59;;;8.08;100.00
71907;BME280;59781;52.090;5.030;2023-12-22T03:19:55;100293.78;;;8.26;100.00
71907;BME280;59781;52.090;5.030;2023-12-22T03:22:21;100272.63;;;8.31;100.00
71907;BME280;59781;52.090;5.030;2023-12-22T03:24:46;100274.50;;;8.39;100.00
71907;BME280;59781;52.090;5.030;2023-12-22T03:27:12;100280.19;;;8.44;100.00
71907;BME280;59781;52.090;5.030;2023-12-22T03:29:42;100287.91;;;8.39;100.00
71907;BME280;59781;52.090;5.030;2023-12-22T03:32:08;100294.59;;;8.43;100.00
71907;BME280;59781;52.090;5.030;2023-12-22T03:34:34;100288.06;;;8.29;100.00
71907;BME280;59781;52.090;5.030;2023-12-22T03:36:59;100310.72;;;8.26;100.00
71907;BME280;59781;52.090;5.030;2023-12-22T03:39:25;100293.41;;;8.53;100.00
71907;BME280;59781;52.090;5.030;2023-12-22T03:41:51;100295.13;;;8.46;100.00
71907;BME280;59781;52.090;5.030;2023-12-22T03:44:16;100283.56;;;8.46;100.00
71907;BME280;59781;52.090;5.030;2023-12-22T03:46:42;100286.72;;;8.49;100.00
71907;BME280;59781;52.090;5.030;2023-12-22T03:49:08;100285.88;;;8.57;100.00
71907;BME280;59781;52.090;5.030;2023-12-22T03:51:34;100301.94;;;8.65;100.00
71907;BME280;59781;52.090;5.030;2023-12-22T03:53:59;100293.22;;;8.55;100.00
71907;BME280;59781;52.090;5.030;2023-12-22T03:56:25;100284.13;;;8.72;100.00
71907;BME280;59781;52.090;5.030;2023-12-22T03:58:51;100286.31;;;8.77;100.00
71907;BME280;59781;52.090;5.030;2023-12-22T04:01:16;100286.81;;;8.72;100.00
71907;BME280;59781;52.090;5.030;2023-12-22T04:03:42;100302.94;;;8.72;100.00
71907;BME280;59781;52.090;5.030;2023-12-22T04:06:08;100295.59;;;8.66;100.00
71907;BME280;59781;52.090;5.030;2023-12-22T04:08:34;100297.56;;;8.72;100.00
71907;BME280;59781;52.090;5.030;2023-12-22T04:10:59;100297.34;;;8.82;100.00
71907;BME280;59781;52.090;5.030;2023-12-22T04:13:25;100309.31;;;8.71;100.00
71907;BME280;59781;52.090;5.030;2023-12-22T04:15:51;100312.47;;;8.75;100.00
71907;BME280;59781;52.090;5.030;2023-12-22T04:18:16;100312.03;;;8.55;100.00
71907;BME280;59781;52.090;5.030;2023-12-22T04:20:42;100310.22;;;8.55;100.00
71907;BME280;59781;52.090;5.030;2023-12-22T04:23:07;100321.44;;;8.59;100.00
71907;BME280;59781;52.090;5.030;2023-12-22T04:25:33;100307.63;;;8.78;100.00
71907;BME280;59781;52.090;5.030;2023-12-22T04:27:59;100311.84;;;8.65;100.00
71907;BME280;59781;52.090;5.030;2023-12-22T04:30:24;100318.34;;;8.78;100.00
71907;BME280;59781;52.090;5.030;2023-12-22T04:32:52;100306.59;;;8.79;100.00
71907;BME280;59781;52.090;5.030;2023-12-22T04:35:17;100306.47;;;8.65;100.00
71907;BME280;59781;52.090;5.030;2023-12-22T04:37:43;100295.53;;;8.74;100.00
71907;BME280;59781;52.090;5.030;2023-12-22T04:40:09;100314.13;;;8.84;100.00
71907;BME280;59781;52.090;5.030;2023-12-22T04:42:35;100326.03;;;8.89;100.00
71907;BME280;59781;52.090;5.030;2023-12-22T04:45:01;100310.59;;;8.91;100.00
71907;BME280;59781;52.090;5.030;2023-12-22T04:47:26;100326.53;;;8.93;100.00
71907;BME280;59781;52.090;5.030;2023-12-22T04:49:52;100314.88;;;9.09;100.00
71907;BME280;59781;52.090;5.030;2023-12-22T04:52:18;100323.50;;;8.96;100.00
71907;BME280;59781;52.090;5.030;2023-12-22T04:54:43;100320.84;;;8.88;100.00
71907;BME280;59781;52.090;5.030;2023-12-22T04:57:09;100328.06;;;8.87;100.00
71907;BME280;59781;52.090;5.030;2023-12-22T04:59:34;100331.06;;;8.93;100.00
71907;BME280;59781;52.090;5.030;2023-12-22T05:02:00;100339.25;;;9.07;100.00
71907;BME280;59781;52.090;5.030;2023-12-22T05:04:26;100331.69;;;9.03;100.00
71907;BME280;59781;52.090;5.030;2023-12-22T05:06:51;100337.25;;;8.93;100.00
71907;BME280;59781;52.090;5.030;2023-12-22T05:09:17;100324.63;;;9.10;100.00
71907;BME280;59781;52.090;5.030;2023-12-22T05:11:43;100337.53;;;9.14;100.00
71907;BME280;59781;52.090;5.030;2023-12-22T05:14:09;100319.28;;;9.02;100.00
71907;BME280;59781;52.090;5.030;2023-12-22T05:16:35;100334.56;;;8.93;100.00
71907;BME280;59781;52.090;5.030;2023-12-22T05:19:02;100333.16;;;9.13;100.00
71907;BME280;59781;52.090;5.030;2023-12-22T05:21:27;100345.44;;;9.16;100.00
71907;BME280;59781;52.090;5.030;2023-12-22T05:23:53;100331.38;;;9.06;100.00
71907;BME280;59781;52.090;5.030;2023-12-22T05:26:20;100339.13;;;9.32;100.00
71907;BME280;59781;52.090;5.030;2023-12-22T05:28:47;100329.78;;;9.19;100.00
71907;BME280;59781;52.090;5.030;2023-12-22T05:31:16;100327.34;;;9.02;100.00
71907;BME280;59781;52.090;5.030;2023-12-22T05:33:42;100327.84;;;9.05;100.00
71907;BME280;59781;52.090;5.030;2023-12-22T05:36:08;100332.25;;;8.90;100.00
71907;BME280;59781;52.090;5.030;2023-12-22T05:38:38;100321.28;;;9.08;100.00
71907;BME280;59781;52.090;5.030;2023-12-22T05:41:04;100333.88;;;9.07;100.00
71907;BME280;59781;52.090;5.030;2023-12-22T05:43:32;100334.19;;;9.04;100.00
71907;BME280;59781;52.090;5.030;2023-12-22T05:46:01;100322.78;;;9.10;100.00
71907;BME280;59781;52.090;5.030;2023-12-22T05:48:27;100327.34;;;9.02;100.00
71907;BME280;59781;52.090;5.030;2023-12-22T05:50:55;100331.72;;;8.95;100.00
71907;BME280;59781;52.090;5.030;2023-12-22T05:53:21;100323.03;;;9.24;100.00
71907;BME280;59781;52.090;5.030;2023-12-22T05:55:47;100330.31;;;9.15;100.00
71907;BME280;59781;52.090;5.030;2023-12-22T05:58:12;100322.09;;;9.16;100.00
71907;BME280;59781;52.090;5.030;2023-12-22T06:00:38;100324.22;;;9.21;100.00
71907;BME280;59781;52.090;5.030;2023-12-22T06:03:04;100332.50;;;9.42;100.00
71907;BME280;59781;52.090;5.030;2023-12-22T06:05:31;100335.13;;;9.28;100.00
71907;BME280;59781;52.090;5.030;2023-12-22T06:07:56;100329.59;;;9.21;100.00
71907;BME280;59781;52.090;5.030;2023-12-22T06:10:22;100329.19;;;9.40;100.00
71907;BME280;59781;52.090;5.030;2023-12-22T06:12:48;100324.47;;;9.03;100.00
71907;BME280;59781;52.090;5.030;2023-12-22T06:15:13;100322.50;;;9.36;100.00
71907;BME280;59781;52.090;5.030;2023-12-22T06:17:39;100327.34;;;9.33;100.00
71907;BME280;59781;52.090;5.030;2023-12-22T06:20:05;100329.41;;;9.31;100.00
71907;BME280;59781;52.090;5.030;2023-12-22T06:22:31;100335.81;;;9.22;100.00
71907;BME280;59781;52.090;5.030;2023-12-22T06:24:58;100356.44;;;9.29;100.00
71907;BME280;59781;52.090;5.030;2023-12-22T06:27:23;100349.41;;;9.28;100.00
71907;BME280;59781;52.090;5.030;2023-12-22T06:29:49;100347.06;;;9.25;100.00
71907;BME280;59781;52.090;5.030;2023-12-22T06:32:15;100334.28;;;9.27;100.00
71907;BME280;59781;52.090;5.030;2023-12-22T06:34:42;100327.88;;;9.36;100.00
71907;BME280;59781;52.090;5.030;2023-12-22T06:37:08;100336.75;;;9.37;100.00
71907;BME280;59781;52.090;5.030;2023-12-22T06:39:33;100327.34;;;9.33;100.00
71907;BME280;59781;52.090;5.030;2023-12-22T06:41:59;100313.28;;;9.31;100.00
71907;BME280;59781;52.090;5.030;2023-12-22T06:44:25;100323.28;;;9.45;100.00
71907;BME280;59781;52.090;5.030;2023-12-22T06:46:51;100335.38;;;9.41;100.00
71907;BME280;59781;52.090;5.030;2023-12-22T06:49:17;100332.22;;;9.37;100.00
71907;BME280;59781;52.090;5.030;2023-12-22T06:51:43;100338.59;;;9.44;100.00
71907;BME280;59781;52.090;5.030;2023-12-22T06:54:09;100334.66;;;9.55;100.00
71907;BME280;59781;52.090;5.030;2023-12-22T06:56:35;100336.31;;;9.56;100.00
71907;BME280;59781;52.090;5.030;2023-12-22T06:59:01;100328.91;;;9.58;100.00
71907;BME280;59781;52.090;5.030;2023-12-22T07:01:29;100325.06;;;9.53;100.00
71907;BME280;59781;52.090;5.030;2023-12-22T07:03:57;100320.94;;;9.42;100.00
71907;BME280;59781;52.090;5.030;2023-12-22T07:06:27;100314.69;;;9.49;100.00
71907;BME280;59781;52.090;5.030;2023-12-22T07:11:59;100310.22;;;9.34;100.00
71907;BME280;59781;52.090;5.030;2023-12-22T07:14:25;100305.78;;;9.49;100.00
71907;BME280;59781;52.090;5.030;2023-12-22T07:16:51;100324.06;;;9.54;100.00
71907;BME280;59781;52.090;5.030;2023-12-22T07:19:16;100302.47;;;9.39;100.00
71907;BME280;59781;52.090;5.030;2023-12-22T07:21:42;100319.00;;;9.28;100.00
71907;BME280;59781;52.090;5.030;2023-12-22T07:24:08;100322.34;;;9.30;100.00
71907;BME280;59781;52.090;5.030;2023-12-22T07:26:33;100327.91;;;9.28;100.00
71907;BME280;59781;52.090;5.030;2023-12-22T07:28:59;100334.84;;;9.14;100.00
71907;BME280;59781;52.090;5.030;2023-12-22T07:31:26;100324.84;;;9.31;100.00
71907;BME280;59781;52.090;5.030;2023-12-22T07:33:53;100325.41;;;9.27;100.00
71907;BME280;59781;52.090;5.030;2023-12-22T07:36:19;100317.63;;;9.32;100.00
71907;BME280;59781;52.090;5.030;2023-12-22T07:38:46;100314.44;;;9.36;100.00
71907;BME280;59781;52.090;5.030;2023-12-22T07:41:12;100314.38;;;9.44;100.00
71907;BME280;59781;52.090;5.030;2023-12-22T07:43:38;100320.06;;;9.49;100.00
71907;BME280;59781;52.090;5.030;2023-12-22T07:46:03;100317.31;;;9.58;100.00
71907;BME280;59781;52.090;5.030;2023-12-22T07:48:29;100312.38;;;9.69;100.00
71907;BME280;59781;52.090;5.030;2023-12-22T07:50:55;100319.25;;;9.41;100.00
71907;BME280;59781;52.090;5.030;2023-12-22T07:53:20;100326.63;;;9.47;100.00
71907;BME280;59781;52.090;5.030;2023-12-22T07:55:46;100317.72;;;9.46;100.00
71907;BME280;59781;52.090;5.030;2023-12-22T07:58:12;100312.47;;;9.53;100.00
71907;BME280;59781;52.090;5.030;2023-12-22T08:00:39;100343.94;;;9.44;100.00
71907;BME280;59781;52.090;5.030;2023-12-22T08:03:05;100329.25;;;9.24;100.00
71907;BME280;59781;52.090;5.030;2023-12-22T08:05:31;100341.00;;;9.23;100.00
71907;BME280;59781;52.090;5.030;2023-12-22T08:07:57;100342.34;;;8.88;100.00
71907;BME280;59781;52.090;5.030;2023-12-22T08:10:22;100343.06;;;9.13;100.00
71907;BME280;59781;52.090;5.030;2023-12-22T08:12:48;100355.88;;;8.95;100.00
71907;BME280;59781;52.090;5.030;2023-12-22T08:15:13;100364.88;;;9.18;100.00
71907;BME280;59781;52.090;5.030;2023-12-22T08:17:46;100362.56;;;9.15;100.00
71907;BME280;59781;52.090;5.030;2023-12-22T08:20:19;100375.81;;;9.16;100.00
71907;BME280;59781;52.090;5.030;2023-12-22T08:22:49;100356.38;;;9.06;100.00
71907;BME280;59781;52.090;5.030;2023-12-22T08:25:16;100340.59;;;9.03;100.00
71907;BME280;59781;52.090;5.030;2023-12-22T08:27:46;100344.75;;;9.14;100.00
71907;BME280;59781;52.090;5.030;2023-12-22T08:30:12;100357.75;;;9.33;100.00
71907;BME280;59781;52.090;5.030;2023-12-22T08:32:38;100351.88;;;9.38;100.00
71907;BME280;59781;52.090;5.030;2023-12-22T08:35:04;100340.72;;;9.49;100.00
71907;BME280;59781;52.090;5.030;2023-12-22T08:37:30;100339.88;;;9.48;100.00
71907;BME280;59781;52.090;5.030;2023-12-22T08:39:56;100352.84;;;9.45;100.00
71907;BME280;59781;52.090;5.030;2023-12-22T08:42:23;100356.72;;;9.42;100.00
71907;BME280;59781;52.090;5.030;2023-12-22T08:44:53;100349.16;;;9.46;100.00
71907;BME280;59781;52.090;5.030;2023-12-22T08:47:19;100345.91;;;9.51;100.00
71907;BME280;59781;52.090;5.030;2023-12-22T08:49:44;100348.00;;;9.40;100.00
71907;BME280;59781;52.090;5.030;2023-12-22T08:52:10;100336.63;;;9.61;100.00
71907;BME280;59781;52.090;5.030;2023-12-22T08:54:36;100345.00;;;9.66;100.00
71907;BME280;59781;52.090;5.030;2023-12-22T08:57:02;100331.00;;;9.48;100.00
71907;BME280;59781;52.090;5.030;2023-12-22T08:59:28;100348.78;;;9.49;100.00
71907;BME280;59781;52.090;5.030;2023-12-22T09:01:53;100346.91;;;9.58;100.00
71907;BME280;59781;52.090;5.030;2023-12-22T09:04:19;100345.56;;;9.54;100.00
71907;BME280;59781;52.090;5.030;2023-12-22T09:06:48;100335.09;;;9.67;100.00
71907;BME280;59781;52.090;5.030;2023-12-22T09:09:14;100331.56;;;9.66;100.00
71907;BME280;59781;52.090;5.030;2023-12-22T09:11:40;100324.75;;;9.78;100.00
71907;BME280;59781;52.090;5.030;2023-12-22T09:14:06;100328.47;;;9.77;100.00
71907;BME280;59781;52.090;5.030;2023-12-22T09:16:36;100322.09;;;9.70;100.00
71907;BME280;59781;52.090;5.030;2023-12-22T09:19:03;100331.66;;;9.73;100.00
71907;BME280;59781;52.090;5.030;2023-12-22T09:21:29;100329.66;;;9.75;100.00
71907;BME280;59781;52.090;5.030;2023-12-22T09:23:55;100326.06;;;9.83;100.00
71907;BME280;59781;52.090;5.030;2023-12-22T09:26:21;100324.16;;;9.91;100.00
71907;BME280;59781;52.090;5.030;2023-12-22T09:28:47;100322.78;;;9.95;100.00
71907;BME280;59781;52.090;5.030;2023-12-22T09:31:13;100329.78;;;10.04;100.00
71907;BME280;59781;52.090;5.030;2023-12-22T09:33:40;100330.06;;;10.10;100.00
71907;BME280;59781;52.090;5.030;2023-12-22T09:36:07;100327.19;;;10.11;100.00
71907;BME280;59781;52.090;5.030;2023-12-22T09:38:33;100320.31;;;10.09;100.00
71907;BME280;59781;52.090;5.030;2023-12-22T09:41:00;100311.78;;;10.05;100.00
71907;BME280;59781;52.090;5.030;2023-12-22T09:43:26;100321.91;;;10.26;100.00
71907;BME280;59781;52.090;5.030;2023-12-22T09:45:52;100320.44;;;10.15;100.00
71907;BME280;59781;52.090;5.030;2023-12-22T09:48:20;100329.44;;;10.45;100.00
71907;BME280;59781;52.090;5.030;2023-12-22T09:50:52;100323.41;;;10.20;100.00
71907;BME280;59781;52.090;5.030;2023-12-22T09:53:20;100329.66;;;10.44;100.00
71907;BME280;59781;52.090;5.030;2023-12-22T09:55:49;100325.28;;;10.43;100.00
71907;BME280;59781;52.090;5.030;2023-12-22T09:58:15;100321.44;;;10.37;100.00
71907;BME280;59781;52.090;5.030;2023-12-22T10:00:43;100318.78;;;10.52;100.00
71907;BME280;59781;52.090;5.030;2023-12-22T10:03:11;100319.78;;;10.51;100.00
71907;BME280;59781;52.090;5.030;2023-12-22T10:05:39;100331.25;;;10.53;100.00
71907;BME280;59781;52.090;5.030;2023-12-22T10:08:07;100325.81;;;10.38;100.00
71907;BME280;59781;52.090;5.030;2023-12-22T10:10:38;100327.66;;;10.38;100.00
71907;BME280;59781;52.090;5.030;2023-12-22T10:13:05;100330.66;;;10.43;100.00
71907;BME280;59781;52.090;5.030;2023-12-22T10:15:39;100336.88;;;10.43;100.00
71907;BME280;59781;52.090;5.030;2023-12-22T10:18:09;100330.53;;;10.36;100.00
71907;BME280;59781;52.090;5.030;2023-12-22T10:20:35;100328.97;;;10.42;100.00
71907;BME280;59781;52.090;5.030;2023-12-22T10:23:01;100340.91;;;10.24;100.00
71907;BME280;59781;52.090;5.030;2023-12-22T10:25:28;100337.38;;;10.24;100.00
71907;BME280;59781;52.090;5.030;2023-12-22T10:27:55;100333.50;;;10.41;100.00
71907;BME280;59781;52.090;5.030;2023-12-22T10:30:21;100339.13;;;10.54;100.00
71907;BME280;59781;52.090;5.030;2023-12-22T10:32:50;100331.06;;;10.69;100.00
71907;BME280;59781;52.090;5.030;2023-12-22T10:35:23;100335.97;;;10.66;100.00
71907;BME280;59781;52.090;5.030;2023-12-22T10:37:49;100326.97;;;10.58;100.00
71907;BME280;59781;52.090;5.030;2023-12-22T10:40:19;100334.50;;;10.78;100.00
71907;BME280;59781;52.090;5.030;2023-12-22T10:42:45;100341.81;;;10.69;100.00
71907;BME280;59781;52.090;5.030;2023-12-22T10:45:11;100333.47;;;10.79;100.00
71907;BME280;59781;52.090;5.030;2023-12-22T10:47:40;100340.25;;;10.89;100.00
71907;BME280;59781;52.090;5.030;2023-12-22T10:50:06;100333.00;;;10.90;100.00
71907;BME280;59781;52.090;5.030;2023-12-22T10:52:33;100334.22;;;10.87;100.00
71907;BME280;59781;52.090;5.030;2023-12-22T10:55:00;100337.19;;;10.78;100.00
71907;BME280;59781;52.090;5.030;2023-12-22T10:57:26;100331.97;;;10.91;100.00
71907;BME280;59781;52.090;5.030;2023-12-22T10:59:56;100324.94;;;10.90;100.00
71907;BME280;59781;52.090;5.030;2023-12-22T11:02:28;100330.34;;;11.05;100.00
71907;BME280;59781;52.090;5.030;2023-12-22T11:05:01;100325.97;;;10.74;100.00
71907;BME280;59781;52.090;5.030;2023-12-22T11:07:33;100322.25;;;10.90;100.00
71907;BME280;59781;52.090;5.030;2023-12-22T11:10:05;100325.13;;;11.03;100.00
71907;BME280;59781;52.090;5.030;2023-12-22T11:12:36;100322.16;;;10.83;100.00
71907;BME280;59781;52.090;5.030;2023-12-22T11:15:03;100317.13;;;10.95;100.00
71907;BME280;59781;52.090;5.030;2023-12-22T11:17:36;100320.94;;;11.15;100.00
71907;BME280;59781;52.090;5.030;2023-12-22T11:20:06;100320.38;;;10.90;100.00
71907;BME280;59781;52.090;5.030;2023-12-22T11:22:35;100303.28;;;10.98;100.00
71907;BME280;59781;52.090;5.030;2023-12-22T11:25:02;100303.22;;;10.91;100.00
71907;BME280;59781;52.090;5.030;2023-12-22T11:27:33;100284.63;;;10.52;100.00
71907;BME280;59781;52.090;5.030;2023-12-22T11:30:00;100292.22;;;10.49;100.00
71907;BME280;59781;52.090;5.030;2023-12-22T11:32:29;100295.69;;;10.72;100.00
71907;BME280;59781;52.090;5.030;2023-12-22T11:34:56;100298.75;;;10.54;100.00
71907;BME280;59781;52.090;5.030;2023-12-22T11:37:22;100309.13;;;10.57;100.00
71907;BME280;59781;52.090;5.030;2023-12-22T11:39:48;100294.47;;;10.75;100.00
71907;BME280;59781;52.090;5.030;2023-12-22T11:42:28;100290.09;;;10.59;100.00
71907;BME280;59781;52.090;5.030;2023-12-22T11:44:58;100313.78;;;10.78;100.00
71907;BME280;59781;52.090;5.030;2023-12-22T11:47:25;100293.34;;;10.69;100.00
71907;BME280;59781;52.090;5.030;2023-12-22T11:49:53;100291.69;;;10.68;100.00
71907;BME280;59781;52.090;5.030;2023-12-22T11:52:26;100284.34;;;10.77;100.00
71907;BME280;59781;52.090;5.030;2023-12-22T11:54:56;100291.56;;;10.91;100.00
71907;BME280;59781;52.090;5.030;2023-12-22T11:59:58;100282.75;;;10.97;100.00
71907;BME280;59781;52.090;5.030;2023-12-22T12:02:54;100281.75;;;10.83;100.00
71907;BME280;59781;52.090;5.030;2023-12-22T12:05:20;100267.63;;;10.96;100.00
71907;BME280;59781;52.090;5.030;2023-12-22T12:07:47;100267.13;;;11.07;100.00
71907;BME280;59781;52.090;5.030;2023-12-22T12:13:09;100264.81;;;11.04;100.00
71907;BME280;59781;52.090;5.030;2023-12-22T12:15:37;100255.91;;;11.04;100.00
71907;BME280;59781;52.090;5.030;2023-12-22T12:18:05;100252.13;;;11.19;100.00
71907;BME280;59781;52.090;5.030;2023-12-22T12:20:32;100237.00;;;11.18;100.00
71907;BME280;59781;52.090;5.030;2023-12-22T12:22:58;100241.50;;;11.11;100.00
71907;BME280;59781;52.090;5.030;2023-12-22T12:25:31;100261.19;;;11.12;100.00
71907;BME280;59781;52.090;5.030;2023-12-22T12:28:02;100276.44;;;11.05;100.00
71907;BME280;59781;52.090;5.030;2023-12-22T12:30:30;100270.66;;;11.08;100.00
71907;BME280;59781;52.090;5.030;2023-12-22T12:32:59;100269.56;;;11.02;100.00
71907;BME280;59781;52.090;5.030;2023-12-22T12:35:37;100251.88;;;11.14;100.00
71907;BME280;59781;52.090;5.030;2023-12-22T12:38:03;100256.78;;;11.26;100.00
71907;BME280;59781;52.090;5.030;2023-12-22T12:40:30;100253.16;;;11.18;100.00
71907;BME280;59781;52.090;5.030;2023-12-22T12:42:58;100253.94;;;10.98;100.00
71907;BME280;59781;52.090;5.030;2023-12-22T12:45:25;100249.59;;;11.11;100.00
71907;BME280;59781;52.090;5.030;2023-12-22T12:47:57;100247.13;;;11.16;100.00
71907;BME280;59781;52.090;5.030;2023-12-22T12:50:25;100255.66;;;11.20;100.00
71907;BME280;59781;52.090;5.030;2023-12-22T12:52:52;100270.47;;;11.09;100.00
71907;BME280;59781;52.090;5.030;2023-12-22T12:55:22;100258.34;;;11.35;100.00
71907;BME280;59781;52.090;5.030;2023-12-22T12:57:50;100252.19;;;11.41;100.00